createdAt,value
2022-11-29T00:01:20.766Z,5.56
2022-11-29T00:03:48.100Z,5.34
2022-11-29T00:06:17.977Z,5.45
2022-11-29T00:08:45.491Z,5.43
2022-11-29T00:11:37.823Z,5.51
2022-11-29T00:14:11.255Z,5.55
2022-11-29T00:16:41.098Z,5.48
2022-11-29T00:19:12.825Z,5.63
2022-11-29T00:21:39.932Z,5.45
2022-11-29T00:24:07.498Z,5.54
2022-11-29T00:26:34.804Z,5.54
2022-11-29T00:29:02.107Z,5.48
2022-11-29T00:31:31.946Z,5.50
2022-11-29T00:34:00.868Z,5.36
2022-11-29T00:36:28.649Z,5.28
2022-11-29T00:38:56.225Z,5.49
2022-11-29T00:41:23.449Z,4.85
2022-11-29T00:43:50.948Z,5.57
2022-11-29T00:46:18.482Z,5.63
2022-11-29T00:48:45.903Z,5.63
2022-11-29T00:51:13.191Z,5.67
2022-11-29T00:53:40.744Z,5.68
2022-11-29T00:56:08.410Z,5.60
2022-11-29T00:58:37.355Z,5.66
2022-11-29T01:01:05.357Z,5.49
2022-11-29T01:03:33.016Z,5.57
2022-11-29T01:06:06.937Z,5.61
2022-11-29T01:08:34.579Z,5.48
2022-11-29T01:11:13.234Z,5.61
2022-11-29T01:13:41.595Z,5.56
2022-11-29T01:16:09.539Z,5.58
2022-11-29T01:18:37.492Z,5.60
2022-11-29T01:21:08.273Z,5.53
2022-11-29T01:23:37.327Z,5.58
2022-11-29T01:26:11.993Z,4.74
2022-11-29T01:28:40.563Z,5.45
2022-11-29T01:31:12.470Z,5.37
2022-11-29T01:33:39.696Z,5.29
2022-11-29T01:36:08.394Z,4.91
2022-11-29T01:38:36.541Z,5.32
2022-11-29T01:41:06.931Z,5.26
2022-11-29T01:43:53.597Z,4.86
2022-11-29T01:46:20.754Z,4.76
2022-11-29T01:48:48.170Z,4.62
2022-11-29T01:51:15.910Z,5.28
2022-11-29T01:53:43.482Z,5.23
2022-11-29T01:56:11.003Z,5.00
2022-11-29T01:58:38.205Z,5.18
2022-11-29T02:01:05.560Z,5.17
2022-11-29T02:03:32.760Z,5.30
2022-11-29T02:06:01.559Z,5.15
2022-11-29T02:08:46.876Z,5.29
2022-11-29T02:11:41.908Z,5.27
2022-11-29T02:14:47.488Z,4.63
2022-11-29T02:17:23.780Z,5.20
2022-11-29T02:20:00.163Z,5.22
2022-11-29T02:22:33.881Z,5.03
2022-11-29T02:25:21.208Z,5.14
2022-11-29T02:28:30.271Z,4.89
2022-11-29T02:31:09.549Z,5.02
2022-11-29T02:33:54.872Z,4.94
2022-11-29T02:37:13.260Z,4.92
2022-11-29T02:40:08.227Z,4.88
2022-11-29T02:42:56.585Z,5.01
2022-11-29T02:45:41.916Z,5.10
2022-11-29T02:48:33.444Z,4.59
2022-11-29T02:51:14.077Z,5.13
2022-11-29T02:54:01.387Z,5.07
2022-11-29T02:56:42.384Z,4.83
2022-11-29T02:59:34.654Z,5.10
2022-11-29T03:02:07.912Z,5.16
2022-11-29T03:05:14.165Z,5.11
2022-11-29T03:08:05.684Z,5.09
2022-11-29T03:10:54.472Z,5.13
2022-11-29T03:13:53.050Z,4.93
2022-11-29T03:16:41.251Z,4.95
2022-11-29T03:19:12.711Z,4.95
2022-11-29T03:21:42.353Z,4.95
2022-11-29T03:24:19.192Z,4.76
2022-11-29T03:26:51.685Z,5.11
2022-11-29T03:29:36.334Z,5.13
2022-11-29T03:32:12.474Z,5.18
2022-11-29T03:35:04.535Z,5.07
2022-11-29T03:37:34.772Z,5.16
2022-11-29T03:40:05.078Z,5.22
2022-11-29T03:42:59.998Z,5.05
2022-11-29T03:45:33.861Z,5.11
2022-11-29T03:48:22.329Z,5.08
2022-11-29T03:51:01.954Z,4.85
2022-11-29T03:53:47.815Z,5.06
2022-11-29T03:56:24.385Z,5.08
2022-11-29T03:59:12.376Z,4.91
2022-11-29T04:01:57.872Z,4.99
2022-11-29T04:04:37.201Z,4.99
2022-11-29T04:07:08.135Z,4.87
2022-11-29T04:10:14.313Z,5.03
2022-11-29T04:12:47.630Z,5.03
2022-11-29T04:15:17.813Z,5.07
2022-11-29T04:18:09.340Z,4.94
2022-11-29T04:20:55.445Z,4.82
2022-11-29T04:24:00.227Z,4.76
2022-11-29T04:27:04.446Z,4.82
2022-11-29T04:29:50.208Z,4.79
2022-11-29T04:32:53.765Z,4.71
2022-11-29T04:35:54.118Z,4.73
2022-11-29T04:38:43.546Z,4.85
2022-11-29T04:41:58.801Z,4.74
2022-11-29T04:44:48.935Z,4.60
2022-11-29T04:47:38.016Z,4.52
2022-11-29T04:50:19.166Z,3.72
2022-11-29T04:53:15.308Z,4.59
2022-11-29T04:56:04.372Z,4.12
2022-11-29T04:58:42.035Z,4.62
2022-11-29T05:01:26.280Z,4.25
2022-11-29T05:04:11.083Z,4.62
2022-11-29T05:06:53.847Z,4.60
2022-11-29T05:09:52.033Z,4.67
2022-11-29T05:12:25.013Z,4.50
2022-11-29T05:15:41.485Z,3.87
2022-11-29T05:18:20.849Z,4.63
2022-11-29T05:21:06.618Z,4.59
2022-11-29T05:23:59.826Z,4.59
2022-11-29T05:26:43.623Z,4.41
2022-11-29T05:29:21.006Z,4.65
2022-11-29T05:32:15.657Z,4.77
2022-11-29T05:34:55.867Z,4.56
2022-11-29T05:37:31.906Z,4.66
2022-11-29T05:40:20.841Z,4.53
2022-11-29T05:43:06.973Z,4.49
2022-11-29T05:45:58.201Z,4.78
2022-11-29T05:48:34.664Z,4.64
2022-11-29T05:51:11.550Z,4.78
2022-11-29T05:53:44.767Z,4.67
2022-11-29T05:56:25.479Z,4.64
2022-11-29T05:59:22.455Z,4.56
2022-11-29T06:02:08.388Z,4.57
2022-11-29T06:04:41.963Z,4.60
2022-11-29T06:07:29.862Z,4.54
2022-11-29T06:10:02.505Z,4.63
2022-11-29T06:12:35.913Z,4.68
2022-11-29T06:15:13.814Z,4.60
2022-11-29T06:18:18.713Z,4.50
2022-11-29T06:21:30.828Z,4.54
2022-11-29T06:24:43.081Z,4.47
2022-11-29T06:27:29.579Z,4.64
2022-11-29T06:30:16.530Z,4.08
2022-11-29T06:32:55.327Z,4.69
2022-11-29T06:35:41.127Z,4.80
2022-11-29T06:38:23.707Z,4.74
2022-11-29T06:40:51.702Z,4.49
2022-11-29T06:43:20.043Z,4.65
2022-11-29T06:46:12.147Z,4.62
2022-11-29T06:48:51.892Z,4.59
2022-11-29T06:51:27.981Z,4.58
2022-11-29T06:54:33.240Z,4.74
2022-11-29T06:57:14.271Z,4.75
2022-11-29T06:59:47.670Z,4.83
2022-11-29T07:02:17.857Z,4.87
2022-11-29T07:05:10.803Z,4.76
2022-11-29T07:07:38.767Z,4.41
2022-11-29T07:10:12.001Z,4.33
2022-11-29T07:12:42.189Z,4.67
2022-11-29T07:15:17.255Z,4.35
2022-11-29T07:18:02.566Z,4.84
2022-11-29T07:20:44.787Z,4.70
2022-11-29T07:23:34.611Z,4.86
2022-11-29T07:26:21.904Z,4.88
2022-11-29T07:29:12.403Z,4.37
2022-11-29T07:31:58.501Z,4.82
2022-11-29T07:35:10.287Z,4.86
2022-11-29T07:38:01.299Z,4.75
2022-11-29T07:41:03.493Z,4.80
2022-11-29T07:44:12.074Z,4.71
2022-11-29T07:46:39.391Z,4.85
2022-11-29T07:49:10.685Z,4.76
2022-11-29T07:51:37.831Z,4.49
2022-11-29T07:54:05.716Z,4.96
2022-11-29T07:56:32.825Z,4.78
2022-11-29T07:59:00.098Z,4.39
2022-11-29T08:01:27.342Z,4.95
2022-11-29T08:03:54.591Z,4.98
2022-11-29T08:06:25.998Z,5.02
2022-11-29T08:08:53.246Z,4.95
2022-11-29T08:11:20.489Z,4.85
2022-11-29T08:13:47.911Z,5.18
2022-11-29T08:16:18.740Z,5.27
2022-11-29T08:18:45.834Z,5.24
2022-11-29T08:21:18.110Z,5.26
2022-11-29T08:23:49.653Z,5.10
2022-11-29T08:26:18.051Z,5.13
2022-11-29T08:28:45.367Z,4.84
2022-11-29T08:31:14.008Z,5.12
2022-11-29T08:33:43.499Z,5.08
2022-11-29T08:36:16.881Z,4.77
2022-11-29T08:38:44.395Z,5.02
2022-11-29T08:41:14.223Z,4.95
2022-11-29T08:43:42.276Z,4.82
2022-11-29T08:46:13.886Z,5.00
2022-11-29T08:48:45.411Z,5.08
2022-11-29T08:51:12.653Z,5.21
2022-11-29T08:53:42.567Z,5.22
2022-11-29T08:56:53.387Z,5.31
2022-11-29T08:58:59.717Z,5.25
2022-11-29T09:01:26.910Z,5.13
2022-11-29T09:03:59.760Z,5.34
2022-11-29T09:06:29.689Z,5.19
2022-11-29T09:08:58.374Z,5.10
2022-11-29T09:11:26.912Z,5.13
2022-11-29T09:13:58.067Z,4.92
2022-11-29T09:16:28.205Z,4.55
2022-11-29T09:18:56.108Z,4.78
2022-11-29T09:21:25.978Z,4.83
2022-11-29T09:23:58.817Z,4.93
2022-11-29T09:26:29.331Z,5.04
2022-11-29T09:28:58.398Z,5.03
2022-11-29T09:31:27.274Z,5.14
2022-11-29T09:33:55.204Z,5.15
2022-11-29T09:36:27.829Z,5.18
2022-11-29T09:38:56.346Z,5.02
2022-11-29T09:41:54.135Z,5.34
2022-11-29T09:44:36.490Z,5.32
2022-11-29T09:47:28.365Z,5.26
2022-11-29T09:50:17.022Z,5.35
2022-11-29T09:53:07.261Z,5.25
2022-11-29T09:56:13.793Z,5.08
2022-11-29T09:58:46.592Z,4.73
2022-11-29T10:01:25.952Z,4.25
2022-11-29T10:03:57.759Z,4.99
2022-11-29T10:06:29.278Z,5.24
2022-11-29T10:09:15.784Z,4.85
2022-11-29T10:12:10.659Z,5.18
2022-11-29T10:14:51.903Z,5.01
2022-11-29T10:17:34.704Z,5.22
2022-11-29T10:20:10.371Z,5.26
2022-11-29T10:22:56.240Z,5.35
2022-11-29T10:25:28.601Z,5.16
2022-11-29T10:27:55.837Z,5.45
2022-11-29T10:30:23.162Z,5.47
2022-11-29T10:33:00.459Z,5.44
2022-11-29T10:35:29.613Z,5.39
2022-11-29T10:40:53.367Z,5.28
2022-11-29T10:43:20.900Z,5.35
2022-11-29T10:45:56.211Z,5.41
2022-11-29T10:48:28.961Z,5.39
2022-11-29T10:50:56.347Z,5.37
2022-11-29T10:53:27.610Z,5.50
2022-11-29T10:56:06.056Z,5.54
2022-11-29T10:58:33.847Z,5.60
2022-11-29T11:01:02.515Z,5.59
2022-11-29T11:03:33.021Z,5.59
2022-11-29T11:06:08.813Z,5.29
2022-11-29T11:08:37.955Z,5.49
2022-11-29T11:11:07.764Z,5.59
2022-11-29T11:13:36.042Z,5.60
2022-11-29T11:16:15.728Z,5.50
2022-11-29T11:18:43.921Z,5.45
2022-11-29T11:21:14.105Z,5.39
2022-11-29T11:24:02.777Z,5.57
2022-11-29T11:26:43.505Z,5.45
2022-11-29T11:29:19.569Z,5.46
2022-11-29T11:32:00.472Z,5.30
2022-11-29T11:34:29.949Z,4.61
2022-11-29T11:37:15.435Z,5.53
2022-11-29T11:39:43.628Z,5.60
2022-11-29T11:42:39.335Z,5.56
2022-11-29T11:45:09.612Z,5.67
2022-11-29T11:47:43.511Z,5.20
2022-11-29T11:50:23.506Z,5.48
2022-11-29T11:52:55.325Z,5.62
2022-11-29T11:55:22.567Z,5.68
2022-11-29T11:58:09.883Z,5.68
2022-11-29T12:01:06.873Z,5.76
2022-11-29T12:03:46.266Z,5.77
2022-11-29T12:06:31.997Z,5.73
2022-11-29T12:09:10.110Z,5.22
2022-11-29T12:11:55.416Z,5.34
2022-11-29T12:15:11.229Z,5.60
2022-11-29T12:17:58.682Z,5.73
2022-11-29T12:20:34.527Z,5.72
2022-11-29T12:23:14.075Z,5.70
2022-11-29T12:25:57.974Z,5.72
2022-11-29T12:28:34.066Z,5.73
2022-11-29T12:31:10.267Z,5.68
2022-11-29T12:34:25.648Z,5.69
2022-11-29T12:36:52.833Z,5.73
2022-11-29T12:39:32.021Z,5.82
2022-11-29T12:42:28.496Z,5.70
2022-11-29T12:45:15.674Z,5.92
2022-11-29T12:47:55.603Z,5.92
2022-11-29T12:50:34.816Z,6.01
2022-11-29T12:53:18.501Z,6.09
2022-11-29T12:56:11.287Z,6.12
2022-11-29T12:58:46.199Z,6.06
2022-11-29T13:02:04.866Z,6.05
2022-11-29T13:04:44.376Z,6.04
2022-11-29T13:07:17.808Z,6.09
2022-11-29T13:10:18.031Z,6.01
2022-11-29T13:12:56.626Z,6.06
2022-11-29T13:15:46.628Z,6.11
2022-11-29T13:18:26.733Z,5.90
2022-11-29T13:21:10.985Z,5.81
2022-11-29T13:24:09.386Z,5.99
2022-11-29T13:26:39.912Z,6.01
2022-11-29T13:29:12.693Z,6.11
2022-11-29T13:31:43.308Z,6.13
2022-11-29T13:34:17.084Z,6.15
2022-11-29T13:37:00.904Z,6.18
2022-11-29T13:39:40.347Z,6.15
2022-11-29T13:42:13.887Z,6.14
2022-11-29T13:44:53.630Z,6.12
2022-11-29T13:47:21.169Z,6.02
2022-11-29T13:50:27.182Z,6.15
2022-11-29T13:53:04.944Z,6.08
2022-11-29T13:55:33.218Z,5.68
2022-11-29T13:58:18.886Z,5.99
2022-11-29T14:00:46.142Z,6.02
2022-11-29T14:03:28.472Z,6.12
2022-11-29T14:06:01.598Z,6.08
2022-11-29T14:08:54.688Z,6.02
2022-11-29T14:11:49.011Z,6.14
2022-11-29T14:14:16.067Z,5.93
2022-11-29T14:16:43.161Z,6.13
2022-11-29T14:19:33.977Z,6.05
2022-11-29T14:22:05.578Z,6.15
2022-11-29T14:24:32.682Z,6.14
2022-11-29T14:27:08.950Z,6.20
2022-11-29T14:29:51.195Z,6.25
2022-11-29T14:32:49.325Z,6.12
2022-11-29T14:35:30.785Z,6.14
2022-11-29T14:38:00.752Z,6.10
2022-11-29T14:40:31.743Z,5.29
2022-11-29T14:43:01.797Z,5.61
2022-11-29T14:45:32.276Z,5.92
2022-11-29T14:48:01.748Z,5.85
2022-11-29T14:50:36.022Z,6.00
2022-11-29T14:53:05.667Z,6.09
2022-11-29T14:55:38.026Z,6.18
2022-11-29T14:58:25.414Z,5.93
2022-11-29T15:01:01.809Z,6.08
2022-11-29T15:03:36.915Z,6.18
2022-11-29T15:06:04.080Z,6.20
2022-11-29T15:08:47.067Z,6.18
2022-11-29T15:11:27.688Z,5.91
2022-11-29T15:14:03.053Z,6.17
2022-11-29T15:16:36.315Z,6.18
2022-11-29T15:19:22.324Z,6.21
2022-11-29T15:22:22.103Z,6.22
2022-11-29T15:24:50.366Z,6.21
2022-11-29T15:27:18.428Z,6.32
2022-11-29T15:29:49.483Z,6.32
2022-11-29T15:32:28.208Z,5.84
2022-11-29T15:34:56.910Z,6.34
2022-11-29T15:37:36.706Z,6.36
2022-11-29T15:40:12.730Z,6.31
2022-11-29T15:42:49.581Z,6.24
2022-11-29T15:45:27.751Z,6.27
2022-11-29T15:48:09.593Z,6.23
2022-11-29T15:50:37.874Z,6.08
2022-11-29T15:53:11.285Z,6.19
2022-11-29T15:55:38.478Z,6.18
2022-11-29T15:58:08.893Z,6.13
2022-11-29T16:00:36.765Z,6.08
2022-11-29T16:03:05.797Z,6.14
2022-11-29T16:05:38.523Z,6.25
2022-11-29T16:08:14.348Z,6.23
2022-11-29T16:10:47.415Z,6.24
2022-11-29T16:13:35.433Z,6.09
2022-11-29T16:16:23.867Z,6.19
2022-11-29T16:18:51.400Z,6.22
2022-11-29T16:21:31.634Z,6.22
2022-11-29T16:23:59.331Z,6.27
2022-11-29T16:26:26.391Z,6.37
2022-11-29T16:28:58.804Z,6.40
2022-11-29T16:31:37.857Z,8.37
2022-11-29T16:34:15.288Z,8.19
2022-11-29T16:36:42.677Z,8.09
2022-11-29T16:39:38.132Z,7.69
2022-11-29T16:42:26.752Z,7.34
2022-11-29T16:44:56.280Z,7.23
2022-11-29T16:47:25.911Z,7.05
2022-11-29T16:50:02.910Z,6.94
2022-11-29T16:52:32.868Z,6.89
2022-11-29T16:55:00.296Z,6.49
2022-11-29T16:57:29.481Z,6.62
2022-11-29T16:59:56.567Z,6.34
2022-11-29T17:02:24.363Z,6.28
2022-11-29T17:04:51.866Z,6.54
2022-11-29T17:07:30.647Z,6.42
2022-11-29T17:09:58.897Z,6.35
2022-11-29T17:12:26.231Z,6.48
2022-11-29T17:14:53.376Z,6.16
2022-11-29T17:17:21.130Z,6.49
2022-11-29T17:19:48.389Z,5.51
2022-11-29T17:22:15.930Z,6.19
2022-11-29T17:24:48.244Z,6.39
2022-11-29T17:27:16.265Z,6.40
2022-11-29T17:29:43.476Z,6.41
2022-11-29T17:32:10.984Z,6.38
2022-11-29T17:34:38.162Z,6.18
2022-11-29T17:37:05.231Z,6.05
2022-11-29T17:39:33.383Z,6.03
2022-11-29T17:42:00.598Z,5.86
2022-11-29T17:44:27.934Z,5.93
2022-11-29T17:46:55.118Z,5.78
2022-11-29T17:49:22.959Z,5.87
2022-11-29T17:51:52.293Z,5.95
2022-11-29T17:54:21.729Z,5.90
2022-11-29T17:56:49.617Z,4.82
2022-11-29T17:59:17.035Z,5.91
2022-11-29T18:01:47.251Z,6.06
2022-11-29T18:04:16.293Z,6.05
2022-11-29T18:06:43.791Z,5.97
2022-11-29T18:09:11.874Z,5.34
2022-11-29T18:11:47.409Z,5.76
2022-11-29T18:14:19.474Z,5.54
2022-11-29T18:16:46.869Z,5.59
2022-11-29T18:19:18.058Z,5.83
2022-11-29T18:21:45.483Z,5.81
2022-11-29T18:24:12.694Z,5.85
2022-11-29T18:26:40.863Z,5.68
2022-11-29T18:29:09.048Z,5.79
2022-11-29T18:31:38.849Z,4.87
2022-11-29T18:34:09.781Z,6.03
2022-11-29T18:36:40.430Z,5.20
2022-11-29T18:39:10.349Z,5.99
2022-11-29T18:41:38.520Z,5.83
2022-11-29T18:44:08.998Z,4.98
2022-11-29T18:46:38.454Z,5.00
2022-11-29T18:49:07.976Z,5.74
2022-11-29T18:51:36.950Z,5.59
2022-11-29T18:54:06.208Z,5.45
2022-11-29T18:56:36.130Z,4.77
2022-11-29T18:59:10.572Z,4.41
2022-11-29T19:01:43.048Z,5.01
2022-11-29T19:04:15.643Z,4.43
2022-11-29T19:07:06.952Z,5.17
2022-11-29T19:09:36.775Z,3.62
2022-11-29T19:12:08.509Z,3.56
2022-11-29T19:14:36.132Z,4.75
2022-11-29T19:17:06.530Z,4.73
2022-11-29T19:19:34.371Z,3.57
2022-11-29T19:22:07.080Z,3.53
2022-11-29T19:24:35.591Z,4.44
2022-11-29T19:27:05.029Z,4.91
2022-11-29T19:29:39.736Z,4.40
2022-11-29T19:32:08.964Z,4.90
2022-11-29T19:34:36.580Z,4.97
2022-11-29T19:37:25.022Z,4.99
2022-11-29T19:39:52.799Z,4.72
2022-11-29T19:42:24.746Z,3.18
2022-11-29T19:45:16.624Z,3.45
2022-11-29T19:47:45.057Z,5.01
2022-11-29T19:50:13.475Z,5.09
2022-11-29T19:52:40.989Z,4.86
2022-11-29T19:55:09.627Z,5.30
2022-11-29T20:01:15.729Z,4.94
2022-11-29T20:04:00.936Z,5.20
2022-11-29T20:06:29.933Z,4.99
2022-11-29T20:08:58.975Z,5.15
2022-11-29T20:11:27.013Z,5.08
2022-11-29T20:17:26.401Z,4.80
2022-11-29T20:20:25.757Z,5.06
2022-11-29T20:22:56.895Z,3.44
2022-11-29T20:25:48.745Z,4.84
2022-11-29T20:28:17.233Z,4.04
2022-11-29T20:34:15.133Z,4.96
2022-11-29T20:37:23.891Z,4.98
2022-11-29T20:40:09.655Z,5.04
2022-11-29T20:43:01.816Z,5.09
2022-11-29T20:45:29.371Z,5.29
2022-11-29T20:48:15.417Z,5.36
2022-11-29T20:50:45.762Z,4.31
2022-11-29T20:53:16.827Z,5.32
2022-11-29T20:55:48.036Z,5.08
2022-11-29T20:58:16.394Z,5.33
2022-11-29T21:00:46.856Z,5.43
2022-11-29T21:03:23.061Z,5.38
2022-11-29T21:05:54.733Z,5.20
2022-11-29T21:08:25.315Z,5.16
2022-11-29T21:10:53.068Z,5.27
2022-11-29T21:13:23.160Z,5.13
2022-11-29T21:15:51.046Z,5.10
2022-11-29T21:18:27.743Z,4.91
2022-11-29T21:21:12.442Z,5.11
2022-11-29T21:23:42.654Z,5.10
2022-11-29T21:26:20.637Z,5.17
2022-11-29T21:29:18.272Z,5.19
2022-11-29T21:31:47.499Z,5.04
2022-11-29T21:34:15.259Z,4.89
2022-11-29T21:36:44.189Z,4.96
2022-11-29T21:39:15.072Z,4.96
2022-11-29T21:41:42.528Z,4.91
2022-11-29T21:44:10.131Z,4.41
2022-11-29T21:46:37.584Z,4.93
2022-11-29T21:49:05.224Z,4.97
2022-11-29T21:51:32.444Z,4.99
2022-11-29T21:53:59.603Z,5.03
2022-11-29T21:56:26.753Z,5.03
2022-11-29T21:58:53.994Z,5.15
2022-11-29T22:01:21.423Z,4.97
2022-11-29T22:03:48.713Z,4.98
2022-11-29T22:06:21.379Z,4.97
2022-11-29T22:08:48.967Z,4.72
2022-11-29T22:11:36.746Z,4.83
2022-11-29T22:14:13.935Z,4.88
2022-11-29T22:16:45.969Z,4.91
2022-11-29T22:19:15.920Z,4.85
2022-11-29T22:21:45.469Z,4.81
2022-11-29T22:24:14.808Z,4.84
2022-11-29T22:26:43.812Z,4.51
2022-11-29T22:29:11.795Z,4.13
2022-11-29T22:31:38.901Z,4.01
2022-11-29T22:34:06.186Z,4.89
2022-11-29T22:36:35.318Z,4.08
2022-11-29T22:39:02.741Z,4.84
2022-11-29T22:41:31.053Z,4.10
2022-11-29T22:43:58.354Z,4.32
2022-11-29T22:46:27.180Z,4.85
2022-11-29T22:48:56.740Z,4.89
2022-11-29T22:51:32.501Z,4.88
2022-11-29T22:54:07.832Z,4.72
2022-11-29T22:56:38.235Z,4.82
2022-11-29T22:59:06.200Z,4.87
2022-11-29T23:01:35.621Z,4.86
2022-11-29T23:04:06.192Z,4.79
2022-11-29T23:06:38.686Z,4.74
2022-11-29T23:09:19.938Z,4.83
2022-11-29T23:11:52.018Z,4.86
2022-11-29T23:14:20.478Z,4.84
2022-11-29T23:16:47.630Z,4.82
2022-11-29T23:19:16.393Z,4.67
2022-11-29T23:21:45.777Z,4.30
2022-11-29T23:24:14.303Z,4.72
2022-11-29T23:26:45.066Z,4.55
2022-11-29T23:29:15.030Z,4.76
2022-11-29T23:31:42.553Z,4.91
2022-11-29T23:34:10.391Z,4.91
2022-11-29T23:36:37.519Z,4.84
2022-11-29T23:39:06.762Z,4.97
2022-11-29T23:41:36.446Z,5.01
2022-11-29T23:44:05.821Z,4.98
2022-11-29T23:46:33.199Z,4.57
2022-11-29T23:49:00.341Z,5.08
2022-11-29T23:51:27.449Z,5.05
2022-11-29T23:53:55.050Z,4.90
2022-11-29T23:56:23.023Z,4.94
2022-11-29T23:58:50.506Z,5.20
